Time;durP1;ratioP1;P1;durP2;ratioP2;P2;SDS_P1;SDS_P2;PMS_P1;PMS_P2;Temp;Humidity;BMP_temperature;BMP_pressure;BME280_temperature;BME280_humidity;BME280_pressure;Samples;Min_cycle;Max_cycle;Signal;HPM_P1;HPM_P2
2022/05/13 00:00:28;;;;;;;4.53;4.05;;;;;;;12.79;89.31;101770.75;10380485;28;20049;-74
2022/05/13 00:05:29;;;;;;;19.38;5.70;;;;;;;12.79;90.85;101776.19;10379448;28;20045;-75
2022/05/13 00:10:29;;;;;;;13.00;4.95;;;;;;;12.76;94.58;101770.25;10379669;28;20052;-75
2022/05/13 00:15:29;;;;;;;26.13;6.18;;;;;;;12.79;96.63;101776.19;10361520;28;20480;-75
2022/05/13 00:20:30;;;;;;;15.13;4.75;;;;;;;12.85;96.05;101760.97;10361772;28;20065;-74
2022/05/13 00:25:33;;;;;;;28.73;9.05;;;;;;;12.88;97.50;101757.03;10378927;28;20033;-74
2022/05/13 00:30:37;;;;;;;15.80;5.72;;;;;;;12.92;98.76;101764.63;10379131;28;20038;-74
2022/05/13 00:35:37;;;;;;;14.95;5.53;;;;;;;12.97;97.35;101764.03;10379954;28;20055;-74
2022/05/13 00:40:38;;;;;;;21.98;5.35;;;;;;;12.90;99.08;101752.25;10386313;28;20026;-74
2022/05/13 00:45:38;;;;;;;20.48;4.18;;;;;;;12.97;98.05;101755.88;10387545;28;20369;-75
2022/05/13 00:50:40;;;;;;;21.13;5.55;;;;;;;12.97;100.00;101745.00;10380325;28;20469;-74
2022/05/13 00:55:42;;;;;;;10.50;4.47;;;;;;;13.01;99.58;101752.56;10377601;28;20056;-74
2022/05/13 01:00:43;;;;;;;19.48;4.60;;;;;;;13.02;99.33;101748.84;10377530;28;20030;-74
2022/05/13 01:05:45;;;;;;;23.70;4.88;;;;;;;13.11;97.51;101746.81;10359516;28;20034;-75
2022/05/13 01:10:46;;;;;;;8.98;4.53;;;;;;;13.19;96.02;101746.69;10359740;28;20042;-74
2022/05/13 01:15:47;;;;;;;15.18;5.13;;;;;;;13.19;95.44;101743.13;10376805;28;20096;-75
2022/05/13 01:20:50;;;;;;;9.70;5.05;;;;;;;13.16;94.77;101741.66;10376705;28;20066;-74
2022/05/13 01:26:01;;;;;;;19.27;4.68;;;;;;;13.22;93.61;101743.59;10375729;28;20595;-74
2022/05/13 01:31:04;;;;;;;10.65;4.07;;;;;;;13.20;93.20;101737.50;10359241;28;20034;-74
2022/05/13 01:36:05;;;;;;;9.25;4.82;;;;;;;13.26;92.22;101747.63;10376890;28;20030;-75
2022/05/13 01:41:06;;;;;;;13.57;3.95;;;;;;;13.14;92.77;101735.53;10374803;28;20038;-74
2022/05/13 01:46:06;;;;;;;26.23;4.15;;;;;;;13.20;91.50;101733.94;10358643;28;20109;-74
2022/05/13 01:51:07;;;;;;;12.35;4.13;;;;;;;13.22;89.58;101737.31;10358374;28;20033;-74
2022/05/13 01:56:07;;;;;;;22.33;5.75;;;;;;;13.14;89.04;101738.25;10341795;28;20037;-74
2022/05/13 02:01:07;;;;;;;5.50;3.03;;;;;;;13.05;88.56;101742.19;10359097;28;20046;-74
2022/05/13 02:06:08;;;;;;;7.95;3.15;;;;;;;12.97;87.89;101728.69;10373401;28;20040;-74
2022/05/13 02:11:08;;;;;;;9.90;3.15;;;;;;;12.90;87.88;101734.06;10375916;28;20465;-74
2022/05/13 02:16:10;;;;;;;13.77;4.47;;;;;;;12.88;87.34;101727.97;10375022;28;20034;-72
2022/05/13 02:21:11;;;;;;;14.68;3.92;;;;;;;12.79;88.16;101726.38;10375909;28;20065;-72
2022/05/13 02:26:12;;;;;;;10.82;3.70;;;;;;;12.76;87.10;101732.22;10375008;28;20130;-72
2022/05/13 02:31:13;;;;;;;21.20;4.38;;;;;;;12.62;88.88;101733.94;10356854;28;20053;-72
2022/05/13 02:36:14;;;;;;;10.10;3.50;;;;;;;12.63;87.31;101711.16;10357653;28;20030;-72
2022/05/13 02:41:15;;;;;;;3.17;2.78;;;;;;;12.59;87.17;101712.59;10375298;28;20052;-73
2022/05/13 02:46:33;;;;;;;7.70;2.47;;;;;;;12.55;86.60;101711.28;10374072;28;20440;-73
2022/05/13 02:51:34;;;;;;;7.90;2.97;;;;;;;12.44;87.56;101714.47;10358677;28;20121;-73
2022/05/13 02:56:34;;;;;;;20.63;4.65;;;;;;;12.40;87.47;101711.31;10374896;28;20407;-72
2022/05/13 03:01:35;;;;;;;10.15;3.85;;;;;;;12.44;86.41;101706.34;10374426;28;20393;-73
2022/05/13 03:06:35;;;;;;;9.30;3.67;;;;;;;12.39;87.03;101717.78;10372703;28;20045;-73
2022/05/13 03:11:36;;;;;;;11.60;4.22;;;;;;;12.36;87.43;101711.88;10375325;28;20050;-73
2022/05/13 03:16:37;;;;;;;7.63;3.90;;;;;;;12.37;87.37;101721.72;10375167;28;20038;-72
2022/05/13 03:21:37;;;;;;;5.78;3.08;;;;;;;12.29;87.00;101719.94;10381780;28;20038;-72
2022/05/13 03:26:38;;;;;;;12.55;3.53;;;;;;;12.21;87.71;101723.59;10380516;28;20485;-73
2022/05/13 03:31:38;;;;;;;4.47;3.08;;;;;;;12.09;90.48;101722.38;10363917;28;20049;-73
2022/05/13 03:36:38;;;;;;;10.85;3.38;;;;;;;12.21;91.26;101733.63;10379966;28;20030;-72
2022/05/13 03:41:39;;;;;;;6.97;3.30;;;;;;;12.33;91.59;101732.94;10382289;28;20487;-72
2022/05/13 03:46:39;;;;;;;8.13;4.30;;;;;;;12.40;91.10;101740.34;10364925;28;20038;-73
2022/05/13 03:51:40;;;;;;;6.65;3.20;;;;;;;12.41;92.03;101736.59;10381549;28;20042;-72
2022/05/13 03:56:40;;;;;;;4.88;3.35;;;;;;;12.42;91.88;101736.41;10381021;28;20429;-73
2022/05/13 04:01:41;;;;;;;5.18;3.53;;;;;;;12.39;91.74;101735.94;10362662;28;20040;-72
2022/05/13 04:17:19;;;;;;;10.48;2.72;;;;;;;12.18;91.76;101740.25;10379161;28;20042;-72
2022/05/13 04:22:20;;;;;;;17.25;4.47;;;;;;;12.13;92.80;101745.44;10363127;28;20037;-73
2022/05/13 04:27:20;;;;;;;8.38;3.33;;;;;;;12.29;90.93;101742.50;10378634;28;20436;-73
2022/05/13 04:32:20;;;;;;;3.55;2.88;;;;;;;12.44;92.97;101742.47;10379982;28;20030;-72
2022/05/13 04:37:21;;;;;;;7.55;3.42;;;;;;;12.73;92.78;101748.91;10362743;28;20108;-73
2022/05/13 04:52:59;;;;;;;11.45;2.63;;;;;;;13.17;89.67;101770.50;10377756;28;20034;-72
2022/05/13 04:57:59;;;;;;;14.05;3.10;;;;;;;13.19;88.73;101781.22;10361805;28;20030;-73
2022/05/13 05:03:00;;;;;;;8.32;2.20;;;;;;;13.27;87.92;101789.25;10377942;28;20360;-73
2022/05/13 05:08:01;;;;;;;4.22;2.78;;;;;;;13.37;87.68;101797.09;10377784;28;20030;-73
2022/05/13 05:13:01;;;;;;;13.45;2.78;;;;;;;13.43;86.89;101786.31;10360709;28;20065;-73
2022/05/13 05:18:02;;;;;;;5.78;2.83;;;;;;;13.58;86.58;101802.56;10376211;28;20030;-73
2022/05/13 05:23:02;;;;;;;5.95;3.63;;;;;;;13.64;85.76;101803.66;10360544;28;20113;-74
2022/05/13 05:28:03;;;;;;;5.93;1.95;;;;;;;13.81;84.79;101805.06;10376832;28;20370;-74
2022/05/13 05:33:03;;;;;;;6.70;3.58;;;;;;;13.96;84.47;101815.88;10377476;28;20037;-74
2022/05/13 05:38:04;;;;;;;7.55;3.50;;;;;;;14.00;82.85;101817.13;10376101;28;20038;-73
2022/05/13 05:43:09;;;;;;;5.68;2.20;;;;;;;14.17;82.96;101821.28;10376398;28;20069;-73
2022/05/13 05:48:10;;;;;;;2.45;1.77;;;;;;;14.33;81.49;101820.13;10374745;28;20057;-73
2022/05/13 05:53:10;;;;;;;9.13;3.95;;;;;;;14.55;81.64;101837.25;10376688;28;20030;-73
2022/05/13 05:58:13;;;;;;;5.45;2.08;;;;;;;14.69;80.47;101820.97;10375567;28;20057;-74
2022/05/13 06:03:13;;;;;;;8.65;2.88;;;;;;;14.65;80.46;101837.72;10375026;28;20133;-74
2022/05/13 06:08:14;;;;;;;7.82;2.45;;;;;;;14.80;80.25;101844.91;10375944;28;20098;-73
2022/05/13 06:13:14;;;;;;;2.15;1.48;;;;;;;14.92;77.64;101851.47;10374858;28;20062;-73
2022/05/13 06:18:15;;;;;;;6.70;2.55;;;;;;;15.22;77.32;101849.31;10375358;28;20034;-74
2022/05/13 06:23:15;;;;;;;2.33;2.05;;;;;;;16.48;72.80;101848.56;10376643;28;20453;-74
2022/05/13 06:28:16;;;;;;;10.43;2.90;;;;;;;17.32;69.15;101844.88;10377058;28;20436;-74
2022/05/13 06:33:16;;;;;;;10.38;2.25;;;;;;;17.80;67.27;101844.38;10375613;28;20044;-74
2022/05/13 06:38:22;;;;;;;4.00;2.10;;;;;;;18.88;64.17;101845.03;10341836;28;20030;-74
2022/05/13 06:43:22;;;;;;;6.00;2.57;;;;;;;19.44;59.45;101847.47;10374245;28;20033;-74
2022/05/13 06:48:24;;;;;;;5.57;2.42;;;;;;;19.64;59.22;101849.94;10358113;28;20022;-74
2022/05/13 06:53:25;;;;;;;4.78;1.48;;;;;;;19.97;57.84;101854.06;10377744;28;20038;-74
2022/05/13 06:58:27;;;;;;;5.75;2.15;;;;;;;19.40;57.18;101859.13;10364755;28;20030;-74
2022/05/13 07:03:27;;;;;;;8.52;2.63;;;;;;;19.43;57.55;101866.91;10365361;28;20457;-74
2022/05/13 07:08:27;;;;;;;4.90;2.03;;;;;;;19.74;58.53;101876.84;10382303;28;20049;-74
2022/05/13 07:13:28;;;;;;;5.57;2.90;;;;;;;19.24;56.72;101882.59;10381720;28;20505;-74
2022/05/13 07:18:28;;;;;;;1.70;1.60;;;;;;;18.68;59.11;101880.91;10381709;28;20045;-74
2022/05/13 07:23:29;;;;;;;9.20;1.70;;;;;;;18.66;60.42;101900.34;10382402;28;20414;-74
2022/05/13 07:28:30;;;;;;;9.00;2.42;;;;;;;19.04;59.32;101896.56;10381138;28;20034;-73
2022/05/13 07:33:30;;;;;;;4.82;2.78;;;;;;;19.42;58.58;101895.47;10364399;28;20038;-74
2022/05/13 07:38:31;;;;;;;5.85;3.03;;;;;;;19.62;56.46;101900.66;10381031;28;20037;-74
2022/05/13 07:43:32;;;;;;;9.57;1.98;;;;;;;19.29;57.87;101905.53;10381737;28;20104;-74
2022/05/13 07:48:32;;;;;;;5.20;2.45;;;;;;;20.10;56.29;101916.25;10380242;28;20069;-74
2022/05/13 07:53:33;;;;;;;5.15;1.95;;;;;;;20.74;51.60;101913.66;10380990;28;20041;-75
2022/05/13 07:58:33;;;;;;;2.80;2.15;;;;;;;20.77;50.57;101916.81;10363150;28;20103;-74
2022/05/13 08:03:34;;;;;;;3.13;2.35;;;;;;;20.75;53.43;101915.38;10380110;28;20080;-74
2022/05/13 08:08:37;;;;;;;3.58;2.35;;;;;;;21.38;51.69;101905.41;10379899;28;20116;-74
2022/05/13 08:13:37;;;;;;;2.22;2.03;;;;;;;21.59;52.51;101916.59;10378297;28;20058;-74
2022/05/13 08:18:39;;;;;;;9.43;2.78;;;;;;;21.95;48.63;101914.50;10362377;28;20042;-74
2022/05/13 08:23:40;;;;;;;6.35;1.92;;;;;;;22.06;48.16;101919.09;10377561;28;20488;-75
2022/05/13 08:28:41;;;;;;;7.07;1.92;;;;;;;22.03;48.89;101925.13;10379317;28;20072;-74
2022/05/13 08:33:42;;;;;;;3.95;1.90;;;;;;;22.46;47.19;101928.31;10378840;28;20034;-75
2022/05/13 08:38:44;;;;;;;2.60;2.13;;;;;;;22.01;47.67;101934.72;10360368;28;20465;-74
2022/05/13 08:43:59;;;;;;;5.72;2.00;;;;;;;22.36;47.71;101941.97;10377975;28;20492;-74
2022/05/13 08:49:12;;;;;;;3.05;2.83;;;;;;;23.12;45.74;101939.53;10378716;28;20040;-75
2022/05/13 08:54:15;;;;;;;7.57;2.55;;;;;;;22.27;48.37;101944.28;10360398;28;20042;-74
2022/05/13 08:59:28;;;;;;;15.88;2.67;;;;;;;21.88;49.19;101949.66;10377952;28;20034;-74
2022/05/13 09:04:31;;;;;;;9.38;2.53;;;;;;;21.50;49.09;101972.34;10360460;28;20041;-74
2022/05/13 09:09:32;;;;;;;4.30;2.58;;;;;;;21.49;50.48;101973.44;10377982;28;20041;-74
2022/05/13 09:14:59;;;;;;;5.55;2.00;;;;;;;21.50;49.57;101975.09;10359356;28;20061;-74
2022/05/13 09:20:01;;;;;;;10.82;3.25;;;;;;;22.88;48.58;101970.13;10360240;28;20120;-74
2022/05/13 09:25:01;;;;;;;8.57;2.65;;;;;;;23.54;44.92;101977.63;10376398;28;20061;-74
2022/05/13 09:30:02;;;;;;;3.13;2.28;;;;;;;24.10;43.35;101958.91;10376695;28;20042;-75
2022/05/13 09:35:12;;;;;;;3.30;2.00;;;;;;;23.90;42.86;101965.91;10360424;28;20040;-74
2022/05/13 09:40:21;;;;;;;6.88;1.95;;;;;;;24.14;42.79;101965.56;10344204;28;20026;-74
2022/05/13 09:45:28;;;;;;;7.55;2.53;;;;;;;24.26;42.74;101974.53;10376597;28;20458;-74
2022/05/13 09:50:31;;;;;;;5.45;2.15;;;;;;;24.45;40.35;101976.94;10358955;28;20041;-74
2022/05/13 09:55:39;;;;;;;4.40;3.13;;;;;;;23.80;43.49;101971.34;10375051;28;20036;-74
2022/05/13 10:00:41;;;;;;;6.30;2.58;;;;;;;22.98;43.61;101984.09;10375474;28;20044;-74
2022/05/13 10:05:41;;;;;;;6.80;2.55;;;;;;;22.34;44.92;101989.16;10357658;28;20394;-75
2022/05/13 10:16:33;;;;;;;2.88;2.35;;;;;;;21.12;47.82;101979.22;10361324;28;20053;-75
2022/05/13 10:22:04;;;;;;;2.00;1.83;;;;;;;23.14;46.01;101973.28;10374568;28;20026;-74
2022/05/13 10:27:05;;;;;;;8.70;2.92;;;;;;;24.12;44.67;101973.28;10376125;28;20116;-75
2022/05/13 10:32:21;;;;;;;8.82;2.90;;;;;;;24.61;40.53;101977.91;10358301;28;20540;-75
2022/05/13 10:37:34;;;;;;;3.28;2.97;;;;;;;25.04;41.50;101980.38;10376037;28;20022;-75
2022/05/13 10:42:48;;;;;;;17.50;4.43;;;;;;;24.85;40.59;101979.16;10359050;28;20026;-75
2022/05/13 10:48:14;;;;;;;7.65;3.35;;;;;;;25.22;40.28;101979.13;10359322;28;20034;-74
2022/05/13 10:53:22;;;;;;;3.53;2.10;;;;;;;25.39;39.39;101981.69;10377434;28;20030;-75
2022/05/13 10:58:36;;;;;;;3.13;2.53;;;;;;;25.04;40.49;101980.38;10343068;28;20033;-74
2022/05/13 11:03:43;;;;;;;4.50;3.05;;;;;;;25.80;39.44;101983.78;10360137;28;20365;-74
2022/05/13 11:08:58;;;;;;;10.40;2.60;;;;;;;25.88;39.08;101972.19;10375977;28;20373;-74
2022/05/13 11:14:17;;;;;;;11.05;2.65;;;;;;;25.58;39.34;101973.72;10357566;28;20054;-74
2022/05/13 11:19:37;;;;;;;5.80;2.67;;;;;;;24.40;41.43;101976.88;10356101;28;20117;-75
2022/05/13 11:30:39;;;;;;;5.97;3.30;;;;;;;25.52;37.81;101970.09;10360500;28;20041;-75
2022/05/13 11:35:40;;;;;;;6.85;2.17;;;;;;;25.32;39.58;101992.22;10373852;28;20512;-76
2022/05/13 11:40:47;;;;;;;2.28;1.90;;;;;;;25.42;39.51;101980.31;10378078;28;20038;-74
2022/05/13 11:46:09;;;;;;;1.75;1.65;;;;;;;25.22;39.11;101993.00;10364628;28;20065;-74
2022/05/13 11:51:20;;;;;;;4.93;1.73;;;;;;;25.08;37.76;101997.34;10381279;28;20022;-74
2022/05/13 11:56:29;;;;;;;2.40;2.20;;;;;;;25.10;38.29;101999.81;10380133;28;20038;-75
2022/05/13 12:01:38;;;;;;;2.28;2.08;;;;;;;24.79;37.53;101992.16;10381875;28;20141;-75
2022/05/13 12:06:48;;;;;;;2.40;2.10;;;;;;;24.55;38.21;101997.25;10382789;28;20077;-74
2022/05/13 12:11:57;;;;;;;3.47;2.05;;;;;;;24.63;37.24;102003.38;10381944;28;20030;-74
2022/05/13 12:17:08;;;;;;;6.70;2.47;;;;;;;24.51;36.80;102004.41;10383916;28;20124;-74
2022/05/13 12:22:30;;;;;;;1.55;1.45;;;;;;;24.73;36.52;102009.00;10364138;28;20111;-74
2022/05/13 12:27:46;;;;;;;1.40;1.15;;;;;;;24.34;36.76;101998.97;10365036;28;20380;-75
2022/05/13 12:32:47;;;;;;;5.13;2.00;;;;;;;24.74;37.31;102011.50;10364808;28;20500;-74
2022/05/13 12:37:48;;;;;;;3.78;2.15;;;;;;;24.83;35.17;101998.00;10363921;28;20484;-74
2022/05/13 12:42:49;;;;;;;2.45;2.10;;;;;;;24.20;36.84;102007.97;10381147;28;20050;-74
2022/05/13 12:48:08;;;;;;;1.65;1.55;;;;;;;23.90;36.69;102001.88;10381772;28;20046;-74
2022/05/13 12:53:29;;;;;;;3.33;1.65;;;;;;;24.16;37.42;101993.84;10382854;28;20439;-75
2022/05/13 12:58:30;;;;;;;5.72;2.08;;;;;;;23.96;38.14;102004.69;10381409;28;20061;-74
2022/05/13 13:03:35;;;;;;;6.47;2.65;;;;;;;24.10;38.22;101995.72;10381733;28;20092;-75
2022/05/13 13:08:40;;;;;;;3.05;2.13;;;;;;;24.29;38.41;101998.94;10363047;28;20120;-75
2022/05/13 13:13:45;;;;;;;3.90;1.73;;;;;;;24.32;36.14;101983.72;10362364;28;20050;-75
2022/05/13 13:18:46;;;;;;;1.80;1.52;;;;;;;24.31;36.08;101984.81;10361090;28;20156;-75
2022/05/13 13:23:46;;;;;;;1.98;1.67;;;;;;;23.55;37.89;101980.16;10362886;28;20117;-74
2022/05/13 13:28:51;;;;;;;8.10;2.28;;;;;;;22.74;39.93;101974.31;10360950;28;20033;-75
2022/05/13 13:33:53;;;;;;;4.47;2.03;;;;;;;23.09;40.18;101981.47;10345093;28;20038;-74
2022/05/13 13:38:58;;;;;;;5.35;2.30;;;;;;;23.07;39.78;101986.41;10359883;28;20384;-75
2022/05/13 13:44:00;;;;;;;5.53;2.47;;;;;;;22.78;40.48;101986.50;10378830;28;20124;-74
2022/05/13 13:49:00;;;;;;;4.90;2.20;;;;;;;22.24;41.16;101983.47;10359467;28;20141;-74
2022/05/13 13:54:11;;;;;;;8.63;2.15;;;;;;;22.32;41.03;101993.22;10359404;28;20104;-74
2022/05/13 13:59:29;;;;;;;3.22;2.03;;;;;;;21.97;41.68;101988.72;10375495;28;20412;-74
2022/05/13 14:04:30;;;;;;;2.72;2.03;;;;;;;21.75;41.83;101983.06;10376838;28;20108;-75
2022/05/13 14:09:38;;;;;;;3.20;2.28;;;;;;;21.62;41.20;101989.69;10376352;28;20042;-74
2022/05/13 14:14:44;;;;;;;2.63;1.90;;;;;;;21.41;42.32;101988.44;10375318;28;20111;-74
2022/05/13 14:19:53;;;;;;;4.70;2.80;;;;;;;21.63;42.46;101987.78;10358366;28;20484;-74
2022/05/13 14:25:03;;;;;;;4.00;2.22;;;;;;;21.71;42.39;101979.13;10358373;28;20429;-74
2022/05/13 14:30:09;;;;;;;1.77;1.67;;;;;;;21.69;40.96;101964.72;10375668;28;20457;-74
2022/05/13 14:35:19;;;;;;;3.67;2.10;;;;;;;21.65;41.42;101966.31;10361195;28;20022;-75
2022/05/13 14:40:40;;;;;;;7.78;3.85;;;;;;;21.26;43.78;101961.38;10359606;28;20363;-75
2022/05/13 14:45:42;;;;;;;9.05;2.78;;;;;;;21.40;41.90;101961.97;10374345;28;20072;-74
2022/05/13 14:50:45;;;;;;;2.90;2.20;;;;;;;21.27;41.02;101964.97;10376000;28;20105;-74
2022/05/13 14:55:59;;;;;;;2.00;1.83;;;;;;;20.99;42.41;101952.78;10374261;28;20113;-75
2022/05/13 15:01:26;;;;;;;6.43;2.42;;;;;;;20.77;42.11;101965.50;10340917;28;20026;-75
2022/05/13 15:06:30;;;;;;;2.05;1.92;;;;;;;20.55;43.77;101957.84;10374754;28;20551;-74
2022/05/13 15:11:30;;;;;;;3.35;2.60;;;;;;;20.12;45.92;101967.19;10377077;28;20088;-74
2022/05/13 15:16:31;;;;;;;8.70;2.88;;;;;;;20.14;46.40;101962.31;10381164;28;20436;-74
2022/05/13 15:21:32;;;;;;;8.35;2.65;;;;;;;20.12;47.83;101953.44;10382775;28;20216;-74
2022/05/13 15:26:32;;;;;;;11.90;2.58;;;;;;;19.94;47.99;101956.25;10365491;28;20117;-74
2022/05/13 15:31:32;;;;;;;6.25;3.15;;;;;;;20.05;48.24;101962.88;10380975;28;20037;-74
2022/05/13 15:36:33;;;;;;;4.00;2.95;;;;;;;19.88;49.20;101949.81;10364085;28;20060;-74
2022/05/13 15:41:34;;;;;;;6.78;2.35;;;;;;;19.82;50.47;101947.97;10382431;28;20040;-74
2022/05/13 15:46:35;;;;;;;5.70;3.17;;;;;;;19.62;50.99;101963.88;10386681;28;20061;-74
2022/05/13 15:56:57;;;;;;;3.55;3.20;;;;;;;19.12;52.65;101950.34;10379809;28;20030;-74
2022/05/13 16:01:58;;;;;;;5.20;2.95;;;;;;;18.95;53.88;101947.34;10381065;28;20462;-74
2022/05/13 16:06:59;;;;;;;6.80;3.45;;;;;;;18.62;55.25;101958.63;10381188;28;20041;-74
2022/05/13 16:12:01;;;;;;;4.80;3.03;;;;;;;18.37;55.32;101954.00;10346513;28;20492;-74
2022/05/13 16:17:04;;;;;;;4.75;3.63;;;;;;;18.19;55.78;101960.28;10362852;28;20115;-74
2022/05/13 16:22:06;;;;;;;5.10;3.00;;;;;;;17.86;56.88;101966.78;10379386;28;20113;-74
2022/05/13 16:27:09;;;;;;;6.07;2.63;;;;;;;17.76;57.99;101968.31;10347129;28;20465;-74
2022/05/13 16:32:09;;;;;;;6.43;3.33;;;;;;;17.52;58.92;101961.72;10379768;28;20489;-75
2022/05/13 16:42:30;;;;;;;12.23;3.65;;;;;;;17.10;59.90;101962.06;10379699;28;20050;-74
2022/05/13 16:47:30;;;;;;;21.08;4.05;;;;;;;16.87;59.90;101962.53;10380481;28;20062;-74
2022/05/13 16:52:30;;;;;;;4.55;2.47;;;;;;;16.86;59.50;101966.31;10346793;28;20057;-74
2022/05/13 16:57:31;;;;;;;4.55;2.17;;;;;;;16.83;58.45;101977.69;10379861;28;20038;-74
2022/05/13 17:02:32;;;;;;;4.50;2.85;;;;;;;16.65;58.43;101964.63;10361741;28;20533;-74
2022/05/13 17:07:32;;;;;;;3.50;2.38;;;;;;;16.56;57.49;101967.78;10378013;28;20462;-74
2022/05/13 17:17:56;;;;;;;8.45;2.65;;;;;;;16.21;58.05;101963.38;10341248;28;20046;-74
2022/05/13 17:22:57;;;;;;;5.13;1.77;;;;;;;16.15;57.84;101974.31;10361620;28;20053;-74
2022/05/13 17:27:58;;;;;;;4.03;2.65;;;;;;;15.97;57.23;101973.00;10377909;28;20062;-74
2022/05/13 17:32:59;;;;;;;12.88;2.42;;;;;;;15.86;56.95;101970.91;10378829;28;20064;-74
2022/05/13 17:38:01;;;;;;;5.10;2.20;;;;;;;15.81;56.10;101962.47;10359566;28;20126;-74
2022/05/13 17:43:03;;;;;;;8.20;2.47;;;;;;;15.73;56.42;101970.84;10360365;28;20030;-74
2022/05/13 17:48:05;;;;;;;7.72;2.28;;;;;;;15.57;56.28;101970.16;10360233;28;20114;-74
2022/05/13 17:53:09;;;;;;;6.88;1.98;;;;;;;15.55;56.40;101974.97;10376164;28;20046;-73
2022/05/13 17:58:11;;;;;;;5.05;2.25;;;;;;;15.48;56.96;101976.84;10376362;28;20109;-73
2022/05/13 18:03:11;;;;;;;4.13;2.30;;;;;;;15.40;56.64;101968.81;10376848;28;20499;-74
2022/05/13 18:08:12;;;;;;;11.50;3.50;;;;;;;15.33;56.31;101965.22;10358967;28;20038;-74
2022/05/13 18:13:12;;;;;;;7.97;2.13;;;;;;;15.26;57.46;101975.25;10377955;28;20137;-74
2022/05/13 18:18:31;;;;;;;3.42;1.92;;;;;;;15.23;58.56;101970.22;10377408;28;20377;-73
2022/05/13 18:23:31;;;;;;;7.97;2.90;;;;;;;15.16;58.51;101966.63;10376001;28;20481;-74
2022/05/13 18:28:32;;;;;;;6.63;2.10;;;;;;;15.12;58.50;101960.69;10374451;28;20038;-73
2022/05/13 18:33:32;;;;;;;10.65;2.83;;;;;;;15.05;58.54;101960.66;10357944;28;20033;-74
2022/05/13 18:38:33;;;;;;;12.15;2.42;;;;;;;14.97;58.94;101957.28;10374549;28;20492;-74
2022/05/13 18:48:56;;;;;;;7.05;2.90;;;;;;;14.72;59.27;101968.63;10379455;28;20397;-74
2022/05/13 18:53:57;;;;;;;4.78;2.70;;;;;;;14.61;59.65;101967.31;10389101;28;20029;-74
2022/05/13 18:58:59;;;;;;;6.65;2.60;;;;;;;14.53;60.26;101962.00;10387070;28;20038;-73
2022/05/13 19:03:59;;;;;;;7.97;2.63;;;;;;;14.40;60.31;101976.31;10388746;28;20038;-74
2022/05/13 19:09:01;;;;;;;3.97;1.63;;;;;;;14.32;61.71;101978.34;10370282;28;20435;-74
2022/05/13 19:14:01;;;;;;;10.55;2.65;;;;;;;14.32;61.91;101967.44;10387692;28;20079;-74
2022/05/13 19:19:02;;;;;;;8.30;1.80;;;;;;;14.18;63.44;101977.38;10386134;28;20124;-74
2022/05/13 19:24:02;;;;;;;5.32;2.92;;;;;;;14.04;65.83;101981.88;10385962;28;20045;-73
2022/05/13 19:29:03;;;;;;;8.32;2.53;;;;;;;13.98;65.15;101989.97;10387428;28;20044;-73
2022/05/13 19:34:04;;;;;;;7.00;2.00;;;;;;;13.93;64.22;101987.81;10387252;28;20105;-73
2022/05/13 19:39:05;;;;;;;3.47;1.42;;;;;;;13.94;63.79;102000.38;10387122;28;20029;-73
2022/05/13 19:44:08;;;;;;;5.47;1.80;;;;;;;13.85;64.17;102004.28;10369647;28;20042;-73
2022/05/13 19:49:09;;;;;;;6.63;2.45;;;;;;;13.73;65.18;102003.94;10388751;28;20032;-73
2022/05/13 19:54:10;;;;;;;4.55;2.10;;;;;;;13.61;65.42;102006.28;10369312;28;20041;-73
2022/05/13 19:59:10;;;;;;;4.53;2.15;;;;;;;13.65;65.30;102013.03;10367787;28;20037;-73
2022/05/13 20:04:11;;;;;;;6.63;2.67;;;;;;;13.53;66.50;102000.97;10381945;28;20041;-73
2022/05/13 20:14:31;;;;;;;6.63;3.97;;;;;;;13.28;72.87;102013.19;10380090;28;20061;-73
2022/05/13 20:22:59;;;;;;;6.80;2.95;;;;;;;13.33;71.64;102014.28;10381023;28;20036;-73
2022/05/13 20:24:51;;;;;;;8.80;2.45;;;;;;;13.19;75.14;102023.28;10379061;28;20096;-73
2022/05/13 20:29:52;;;;;;;10.38;3.50;;;;;;;13.15;75.51;102019.25;10379592;28;20033;-73
2022/05/13 20:34:52;;;;;;;5.57;3.60;;;;;;;13.12;75.91;102030.50;10379484;28;20470;-73
2022/05/13 20:39:52;;;;;;;6.10;3.90;;;;;;;12.98;78.43;102018.56;10379597;28;20420;-73
2022/05/13 20:44:53;;;;;;;6.50;3.15;;;;;;;12.98;78.80;102024.84;10377890;28;20092;-73
2022/05/13 20:49:53;;;;;;;11.13;3.80;;;;;;;12.91;80.80;102023.06;10379789;28;20037;-73
2022/05/13 20:54:54;;;;;;;4.90;4.00;;;;;;;12.87;81.16;102016.31;10360520;28;20517;-73
2022/05/13 20:59:55;;;;;;;14.85;4.38;;;;;;;12.88;81.60;102023.44;10379388;28;20030;-73
2022/05/13 21:04:57;;;;;;;5.75;2.53;;;;;;;12.76;84.28;102021.19;10361022;28;20030;-73
2022/05/13 21:09:58;;;;;;;9.80;3.15;;;;;;;12.86;81.64;102030.91;10379032;28;20038;-72
2022/05/13 21:14:59;;;;;;;18.30;4.60;;;;;;;12.73;84.63;102020.69;10359604;28;20068;-73
2022/05/13 21:19:59;;;;;;;27.02;3.92;;;;;;;12.72;85.43;102010.84;10376996;28;20484;-73
2022/05/13 21:25:00;;;;;;;6.88;3.60;;;;;;;12.72;85.47;102024.44;10359044;28;20034;-73
2022/05/13 21:30:00;;;;;;;14.00;2.97;;;;;;;12.74;84.87;102027.81;10377422;28;20041;-73
2022/05/13 21:40:23;;;;;;;5.25;2.03;;;;;;;12.66;87.94;102026.00;10376433;28;20505;-73
2022/05/13 21:45:24;;;;;;;7.53;2.85;;;;;;;12.62;88.74;102026.56;10378664;28;20076;-73
2022/05/13 21:50:24;;;;;;;9.65;2.97;;;;;;;12.59;87.83;102027.78;10376537;28;20070;-73
2022/05/13 21:55:25;;;;;;;11.20;3.63;;;;;;;12.48;91.54;102022.78;10377040;28;20500;-73
2022/05/13 22:00:34;;;;;;;20.58;6.53;;;;;;;12.52;90.90;102029.53;10375002;28;20116;-73
2022/05/13 22:05:35;;;;;;;16.65;5.30;;;;;;;12.50;92.34;102024.28;10375702;28;20096;-73
2022/05/13 22:10:36;;;;;;;11.07;4.43;;;;;;;12.53;90.88;102033.94;10375964;28;20042;-73
2022/05/13 22:15:36;;;;;;;18.27;5.45;;;;;;;12.44;92.14;102027.72;10342351;28;20469;-73
2022/05/13 22:20:37;;;;;;;9.98;3.33;;;;;;;12.45;92.92;102028.59;10376703;28;20520;-73
2022/05/13 22:25:37;;;;;;;15.57;4.30;;;;;;;12.41;94.92;102011.81;10375158;28;20126;-74
2022/05/13 22:30:37;;;;;;;24.55;6.38;;;;;;;12.40;95.58;102022.84;10357416;28;20030;-73
2022/05/13 22:35:38;;;;;;;16.20;4.85;;;;;;;12.40;95.21;102025.56;10375067;28;20044;-72
2022/05/13 22:40:38;;;;;;;21.83;5.22;;;;;;;12.37;95.12;102013.19;10359454;28;20381;-73
2022/05/13 22:45:39;;;;;;;19.52;5.18;;;;;;;12.36;95.43;102016.09;10375575;28;20037;-73
2022/05/13 22:50:39;;;;;;;22.05;5.82;;;;;;;12.24;98.88;102012.94;10374890;28;20033;-73
2022/05/13 22:55:40;;;;;;;22.88;7.70;;;;;;;12.22;99.38;102010.44;10359068;28;20038;-73
2022/05/13 23:00:40;;;;;;;11.63;5.03;;;;;;;12.27;99.10;102009.88;10357161;28;20469;-73
2022/05/13 23:11:15;;;;;;;34.70;7.72;;;;;;;12.25;97.18;102011.91;10374441;28;20405;-73
2022/05/13 23:16:16;;;;;;;10.85;4.90;;;;;;;12.18;99.51;102003.66;10373999;28;20046;-73
2022/05/13 23:21:16;;;;;;;16.48;6.30;;;;;;;12.19;96.80;102010.78;10374183;28;20049;-73
2022/05/13 23:26:19;;;;;;;20.65;6.78;;;;;;;12.16;96.23;102016.59;10357180;28;20088;-73
2022/05/13 23:31:19;;;;;;;20.55;6.38;;;;;;;12.10;96.16;102007.28;10356614;28;20030;-73
2022/05/13 23:36:20;;;;;;;25.30;6.80;;;;;;;12.08;94.24;102008.50;10359754;28;20030;-72
2022/05/13 23:41:20;;;;;;;27.08;7.15;;;;;;;12.02;95.26;102007.31;10380300;28;20034;-73
2022/05/13 23:46:21;;;;;;;12.32;6.35;;;;;;;12.00;97.21;102020.25;10364345;28;20112;-73
2022/05/13 23:51:22;;;;;;;13.13;5.13;;;;;;;12.00;98.99;102014.00;10363696;28;20429;-73
2022/05/13 23:56:24;;;;;;;19.23;7.45;;;;;;;11.96;99.50;102007.22;10382449;28;20464;-73
